Zelzate, Belgium
Current Conditions -  °F | °C
As of 12:25 PM on Tuesday 21 Oct 2014 (Local Time) from EHFS Reporting Station
Light Rain Light Rain  
Wind Chill: 57°   Ceiling: 800
Heat Index: 57°   Visibility: 4mi
Dew Point: 55°   Wind: 26mph
Humidity: 94%   Direction: 200°SSW
Pressure: 29.53"   Gusts: NA
Location:  51.19°N, 3.81°E
Report Text: EHFS 211025Z AUTO 20023KT 6000 -RA SCT007/// BKN008///BKN009/// 14/13 Q1000
Loading
Personal Weather Stations






























Interactive Weather Map
Tropical Storm Tracking
New forecast layout! Learn more

10-Day Weather Forecast

Advertisements
Track Severe Weather on mobile